Oliva, Spain
Current Conditions -  °F | °C
As of 10:30 PM on Saturday 22 Nov 2014 (Local Time) from LEVC Reporting Station
Broken Clouds Broken Clouds  
Wind Chill: 61°   Ceiling: 1200
Heat Index: 61°   Visibility: 4mi
Dew Point: 59°   Wind: 1mph
Humidity: 94%   Direction: NA
Pressure: 30.03"   Gusts: NA
Location:  38.92°N, 0.12°W
Report Text: LEVC 222130Z VRB01KT 6000 BKN012 SCT020 16/15 Q1017 NOSIG
Loading
Personal Weather Stations






























Interactive Weather Map New forecast layout! Learn more

10-Day Weather Forecast

Advertisements
Track Severe Weather on mobile